createdAt,value
2023-01-31T00:00:31.655Z,3.44
2023-01-31T00:04:36.128Z,3.38
2023-01-31T00:08:39.603Z,3.37
2023-01-31T00:12:42.687Z,3.32
2023-01-31T00:16:45.718Z,3.22
2023-01-31T00:20:50.082Z,3.19
2023-01-31T00:24:53.096Z,3.16
2023-01-31T00:28:56.801Z,3.14
2023-01-31T00:32:59.809Z,3.15
2023-01-31T00:37:04.181Z,3.13
2023-01-31T00:41:09.646Z,3.19
2023-01-31T00:45:13.785Z,3.13
2023-01-31T00:49:16.816Z,3.08
2023-01-31T00:53:23.992Z,3.11
2023-01-31T00:57:27.056Z,3.13
2023-01-31T01:01:30.600Z,3.09
2023-01-31T01:05:34.243Z,3.10
2023-01-31T01:09:39.121Z,3.07
2023-01-31T01:13:42.521Z,3.22
2023-01-31T01:17:45.546Z,3.35
2023-01-31T01:21:48.828Z,3.36
2023-01-31T01:25:53.677Z,3.40
2023-01-31T01:29:58.296Z,3.38
2023-01-31T01:34:03.651Z,3.37
2023-01-31T01:38:06.631Z,3.28
2023-01-31T01:42:16.288Z,3.23
2023-01-31T01:46:25.812Z,3.18
2023-01-31T01:50:32.874Z,3.01
2023-01-31T01:54:39.811Z,2.99
2023-01-31T01:58:49.305Z,2.96
2023-01-31T02:02:54.917Z,2.95
2023-01-31T02:07:00.479Z,2.89
2023-01-31T02:11:07.253Z,2.95
2023-01-31T02:15:12.310Z,2.96
2023-01-31T02:19:26.504Z,3.02
2023-01-31T02:24:06.661Z,3.08
2023-01-31T02:28:37.827Z,3.08
2023-01-31T02:32:49.996Z,3.03
2023-01-31T02:37:05.271Z,3.07
2023-01-31T02:41:16.558Z,3.08
2023-01-31T02:45:29.609Z,3.09
2023-01-31T02:49:41.603Z,3.07
2023-01-31T02:53:57.247Z,2.96
2023-01-31T02:58:03.455Z,3.01
2023-01-31T03:02:07.497Z,2.96
2023-01-31T03:06:54.472Z,2.94
2023-01-31T03:11:03.989Z,2.93
2023-01-31T03:15:25.549Z,2.99
2023-01-31T03:19:35.484Z,2.97
2023-01-31T03:23:45.218Z,2.92
2023-01-31T03:27:55.583Z,2.93
2023-01-31T03:32:05.001Z,2.81
2023-01-31T03:36:19.586Z,2.72
2023-01-31T03:40:31.634Z,2.56
2023-01-31T03:44:44.657Z,2.66
2023-01-31T03:48:53.207Z,2.65
2023-01-31T03:53:03.772Z,2.74
2023-01-31T03:57:15.556Z,2.90
2023-01-31T04:01:20.867Z,2.97
2023-01-31T04:05:30.607Z,3.04
2023-01-31T04:09:34.661Z,3.08
2023-01-31T04:13:39.082Z,3.13
2023-01-31T04:17:42.370Z,3.18
2023-01-31T04:21:45.469Z,3.21
2023-01-31T04:25:49.291Z,3.23
2023-01-31T04:29:54.725Z,3.34
2023-01-31T04:34:00.254Z,3.31
2023-01-31T04:38:04.734Z,3.39
2023-01-31T04:42:08.647Z,3.40
2023-01-31T04:46:13.114Z,3.47
2023-01-31T04:50:16.809Z,3.48
2023-01-31T04:54:19.800Z,3.57
2023-01-31T04:58:22.999Z,3.65
2023-01-31T05:02:27.433Z,3.72
2023-01-31T05:06:30.522Z,3.74
2023-01-31T05:10:35.532Z,3.75
2023-01-31T05:14:38.557Z,3.73
2023-01-31T05:18:42.966Z,3.80
2023-01-31T05:22:48.942Z,3.79
2023-01-31T05:26:54.021Z,3.77
2023-01-31T05:31:04.040Z,3.72
2023-01-31T05:35:09.369Z,3.74
2023-01-31T05:39:12.527Z,3.68
2023-01-31T05:43:15.568Z,3.61
2023-01-31T05:47:18.727Z,3.52
2023-01-31T05:51:23.135Z,3.48
2023-01-31T05:55:26.730Z,3.46
2023-01-31T05:59:31.305Z,3.49
2023-01-31T06:03:34.501Z,3.42
2023-01-31T06:07:39.420Z,3.45
2023-01-31T06:11:42.533Z,3.56
2023-01-31T06:15:45.787Z,3.51
2023-01-31T06:19:48.778Z,3.49
2023-01-31T06:23:53.132Z,3.47
2023-01-31T06:27:56.947Z,3.61
2023-01-31T06:31:59.955Z,3.65
2023-01-31T06:36:03.360Z,3.66
2023-01-31T06:40:08.652Z,3.62
2023-01-31T06:44:11.636Z,3.56
2023-01-31T06:48:14.659Z,3.56
2023-01-31T06:52:17.718Z,3.53
2023-01-31T06:56:22.032Z,3.56
2023-01-31T07:00:25.858Z,3.56
2023-01-31T07:04:28.938Z,3.50
2023-01-31T07:08:34.870Z,3.57
2023-01-31T07:12:40.338Z,3.64
2023-01-31T07:16:43.354Z,3.67
2023-01-31T07:20:46.467Z,3.72
2023-01-31T07:24:50.961Z,3.77
2023-01-31T07:28:55.564Z,3.86
2023-01-31T07:32:58.688Z,3.90
2023-01-31T07:37:01.727Z,3.94
2023-01-31T07:41:05.979Z,3.96
2023-01-31T07:45:23.039Z,4.01
2023-01-31T07:49:26.775Z,4.06
2023-01-31T07:53:31.884Z,4.15
2023-01-31T07:57:35.112Z,4.18
2023-01-31T08:01:56.828Z,4.26
2023-01-31T08:05:59.946Z,4.30
2023-01-31T08:10:02.975Z,4.42
2023-01-31T08:14:08.662Z,4.46
2023-01-31T08:18:13.042Z,4.59
2023-01-31T08:22:16.026Z,4.61
2023-01-31T08:26:20.907Z,4.69
2023-01-31T08:30:24.091Z,4.78
2023-01-31T08:34:29.168Z,4.82
2023-01-31T08:38:32.705Z,4.83
2023-01-31T08:42:35.722Z,4.71
2023-01-31T08:46:38.909Z,4.61
2023-01-31T08:50:43.246Z,4.59
2023-01-31T08:54:46.206Z,4.63
2023-01-31T08:58:49.256Z,4.67
2023-01-31T09:02:53.658Z,4.66
2023-01-31T09:06:58.074Z,4.69
2023-01-31T09:11:01.972Z,4.76
2023-01-31T09:15:06.301Z,4.86
2023-01-31T09:19:09.720Z,4.93
2023-01-31T09:23:14.428Z,5.04
2023-01-31T09:27:17.914Z,5.22
2023-01-31T09:31:23.571Z,5.33
2023-01-31T09:35:26.779Z,5.39
2023-01-31T09:39:31.131Z,5.48
2023-01-31T09:43:40.535Z,5.53
2023-01-31T09:47:48.650Z,5.52
2023-01-31T09:51:59.514Z,5.64
2023-01-31T09:56:25.883Z,5.67
2023-01-31T10:00:34.504Z,5.65
2023-01-31T10:04:58.774Z,5.68
2023-01-31T10:09:07.567Z,5.62
2023-01-31T10:13:18.388Z,5.57
2023-01-31T10:17:27.000Z,5.52
2023-01-31T10:21:34.402Z,5.53
2023-01-31T10:25:42.567Z,5.68
2023-01-31T10:29:51.474Z,5.86
2023-01-31T10:33:58.576Z,6.15
2023-01-31T10:38:08.225Z,6.50
2023-01-31T10:42:19.451Z,6.43
2023-01-31T10:46:23.921Z,6.37
2023-01-31T10:50:33.300Z,6.38
2023-01-31T10:54:49.619Z,6.68
2023-01-31T10:58:53.323Z,6.60
2023-01-31T11:02:59.103Z,6.53
2023-01-31T11:07:03.061Z,6.67
2023-01-31T11:11:09.045Z,6.56
2023-01-31T11:15:18.161Z,6.51
2023-01-31T11:19:30.613Z,6.49
2023-01-31T11:23:37.162Z,6.40
2023-01-31T11:27:42.087Z,6.38
2023-01-31T11:31:47.792Z,6.37
2023-01-31T11:35:54.081Z,6.35
2023-01-31T11:39:58.821Z,6.37
2023-01-31T11:44:16.486Z,6.40
2023-01-31T11:48:23.650Z,6.42
2023-01-31T11:52:33.483Z,6.41
2023-01-31T11:56:38.937Z,6.48
2023-01-31T12:00:52.692Z,6.50
2023-01-31T12:04:56.309Z,6.52
2023-01-31T12:09:03.497Z,6.46
2023-01-31T12:13:18.970Z,6.45
2023-01-31T12:17:22.437Z,6.44
2023-01-31T12:21:45.881Z,6.44
2023-01-31T12:26:05.765Z,6.43
2023-01-31T12:30:23.002Z,6.47
2023-01-31T12:35:01.500Z,6.53
2023-01-31T12:39:36.455Z,6.58
2023-01-31T12:43:59.546Z,6.60
2023-01-31T12:48:28.886Z,6.69
2023-01-31T12:52:41.958Z,6.73
2023-01-31T12:57:01.267Z,6.75
2023-01-31T13:01:12.408Z,6.79
2023-01-31T13:05:29.889Z,6.86
2023-01-31T13:09:35.651Z,6.93
2023-01-31T13:13:44.649Z,6.96
2023-01-31T13:17:56.431Z,6.82
2023-01-31T13:22:03.570Z,6.64
2023-01-31T13:26:10.876Z,6.57
2023-01-31T13:30:21.688Z,6.48
2023-01-31T13:34:32.490Z,6.41
2023-01-31T13:38:40.847Z,6.37
2023-01-31T13:42:44.287Z,6.39
2023-01-31T13:46:53.218Z,6.38
2023-01-31T13:51:02.977Z,6.34
2023-01-31T13:55:13.543Z,6.32
2023-01-31T13:59:22.661Z,6.34
2023-01-31T14:03:26.730Z,6.31
2023-01-31T14:07:31.817Z,6.35
2023-01-31T14:11:44.007Z,6.35
2023-01-31T14:15:50.272Z,6.34
2023-01-31T14:20:08.890Z,6.32
2023-01-31T14:24:21.849Z,6.33
2023-01-31T14:28:26.509Z,6.34
2023-01-31T14:32:32.331Z,6.35
2023-01-31T14:36:54.761Z,6.36
2023-01-31T14:41:08.849Z,6.38
2023-01-31T14:45:34.015Z,6.37
2023-01-31T14:49:58.718Z,6.40
2023-01-31T14:54:20.546Z,6.40
2023-01-31T14:58:28.524Z,6.45
2023-01-31T15:02:50.440Z,6.46
2023-01-31T15:06:56.540Z,6.47
2023-01-31T15:11:03.217Z,6.49
2023-01-31T15:15:24.065Z,6.50
2023-01-31T15:19:29.823Z,6.53
2023-01-31T15:23:35.189Z,6.56
2023-01-31T15:27:43.655Z,6.55
2023-01-31T15:31:51.331Z,6.60
2023-01-31T15:36:00.198Z,6.63
2023-01-31T15:40:06.860Z,6.67
2023-01-31T15:44:17.548Z,6.67
2023-01-31T15:48:23.284Z,6.69
2023-01-31T15:52:27.754Z,6.72
2023-01-31T15:56:31.650Z,6.78
2023-01-31T16:00:37.582Z,6.82
2023-01-31T16:04:42.418Z,6.85
2023-01-31T16:08:45.666Z,6.87
2023-01-31T16:12:51.816Z,6.87
2023-01-31T16:16:57.756Z,6.89
2023-01-31T16:21:15.369Z,6.92
2023-01-31T16:25:20.079Z,6.99
2023-01-31T16:29:25.961Z,6.99
2023-01-31T16:33:29.240Z,7.00
2023-01-31T16:37:37.030Z,7.08
2023-01-31T16:41:45.336Z,7.15
2023-01-31T16:45:53.788Z,7.19
2023-01-31T16:50:42.403Z,7.18
2023-01-31T16:54:51.638Z,7.14
2023-01-31T16:58:56.925Z,7.21
2023-01-31T17:03:01.571Z,7.30
2023-01-31T17:07:07.767Z,7.35
2023-01-31T17:11:16.616Z,7.35
2023-01-31T17:15:26.761Z,7.32
2023-01-31T17:19:32.659Z,7.30
2023-01-31T17:23:35.708Z,7.30
2023-01-31T17:27:40.113Z,7.32
2023-01-31T17:31:43.264Z,7.30
2023-01-31T17:35:47.781Z,7.30
2023-01-31T17:39:50.908Z,7.27
2023-01-31T17:43:55.331Z,7.21
2023-01-31T17:47:58.436Z,7.23
2023-01-31T17:52:02.260Z,7.19
2023-01-31T17:56:05.947Z,7.16
2023-01-31T18:00:14.909Z,7.21
2023-01-31T18:04:18.116Z,7.20
2023-01-31T18:08:24.164Z,7.28
2023-01-31T18:12:27.844Z,7.28
2023-01-31T18:16:32.684Z,7.27
2023-01-31T18:20:36.032Z,7.30
2023-01-31T18:24:39.180Z,7.29
2023-01-31T18:28:42.641Z,7.26
2023-01-31T18:32:47.044Z,7.19
2023-01-31T18:36:50.192Z,7.16
2023-01-31T18:40:53.357Z,7.00
2023-01-31T18:44:56.536Z,6.96
2023-01-31T18:49:00.931Z,6.84
2023-01-31T18:53:04.404Z,6.76
2023-01-31T18:57:07.532Z,6.69
2023-01-31T19:01:14.317Z,6.75
2023-01-31T19:05:19.867Z,6.79
2023-01-31T19:09:23.417Z,6.80
2023-01-31T19:13:27.575Z,6.88
2023-01-31T19:17:30.712Z,6.87
2023-01-31T19:21:36.684Z,6.86
2023-01-31T19:25:40.325Z,6.85
2023-01-31T19:29:43.381Z,6.90
2023-01-31T19:33:50.090Z,6.84
2023-01-31T19:37:54.733Z,6.79
2023-01-31T19:41:58.508Z,6.75
2023-01-31T19:46:01.795Z,6.73
2023-01-31T19:50:05.474Z,6.73
2023-01-31T19:54:14.772Z,6.71
2023-01-31T19:58:17.874Z,6.77
2023-01-31T20:02:21.011Z,6.77
2023-01-31T20:06:26.315Z,6.85
2023-01-31T20:10:31.909Z,6.88
2023-01-31T20:14:35.856Z,6.88
2023-01-31T20:18:40.539Z,6.88
2023-01-31T20:22:43.944Z,6.93
2023-01-31T20:26:48.449Z,7.02
2023-01-31T20:30:51.691Z,7.07
2023-01-31T20:34:54.808Z,7.07
2023-01-31T20:38:58.017Z,7.08
2023-01-31T20:43:02.556Z,7.09
2023-01-31T20:47:06.319Z,7.04
2023-01-31T20:51:09.819Z,7.04
2023-01-31T20:55:15.034Z,7.09
2023-01-31T20:59:20.783Z,7.07
2023-01-31T21:03:25.097Z,6.91
2023-01-31T21:07:28.344Z,6.84
2023-01-31T21:11:31.572Z,6.80
2023-01-31T21:15:36.210Z,6.77
2023-01-31T21:19:39.347Z,6.76
2023-01-31T21:23:42.884Z,6.68
2023-01-31T21:27:46.121Z,6.62
2023-01-31T21:31:50.622Z,6.58
2023-01-31T21:35:53.947Z,6.55
2023-01-31T21:39:56.983Z,6.50
2023-01-31T21:44:00.663Z,6.53
2023-01-31T21:48:22.708Z,6.55
2023-01-31T21:52:25.780Z,6.57
2023-01-31T21:56:30.904Z,6.58
2023-01-31T22:00:35.055Z,6.61
2023-01-31T22:04:39.410Z,6.61
2023-01-31T22:08:43.276Z,6.56
2023-01-31T22:12:46.334Z,6.53
2023-01-31T22:16:50.175Z,6.49
2023-01-31T22:20:54.823Z,6.45
2023-01-31T22:24:57.878Z,6.39
2023-01-31T22:29:02.214Z,6.36
2023-01-31T22:33:05.270Z,6.37
2023-01-31T22:37:09.622Z,6.23
2023-01-31T22:41:14.846Z,6.26
2023-01-31T22:45:18.112Z,6.22
2023-01-31T22:49:21.350Z,6.20
2023-01-31T22:53:28.951Z,6.20
2023-01-31T22:57:31.950Z,6.18
2023-01-31T23:01:36.872Z,6.18
2023-01-31T23:05:40.386Z,6.08
2023-01-31T23:09:44.749Z,6.03
2023-01-31T23:13:48.044Z,6.02
2023-01-31T23:17:51.139Z,6.02
2023-01-31T23:21:54.154Z,6.01
2023-01-31T23:25:58.510Z,6.06
2023-01-31T23:30:01.663Z,6.13
2023-01-31T23:34:06.116Z,6.19
2023-01-31T23:38:09.284Z,6.17
2023-01-31T23:42:13.691Z,6.19
2023-01-31T23:46:16.797Z,6.21
2023-01-31T23:50:20.248Z,6.32
2023-01-31T23:54:23.546Z,6.35
2023-01-31T23:58:27.936Z,6.37
